Time;durP1;ratioP1;P1;durP2;ratioP2;P2;SDS_P1;SDS_P2;PMS_P1;PMS_P2;Temp;Humidity;BMP_temperature;BMP_pressure;BME280_temperature;BME280_humidity;BME280_pressure;Samples;Min_cycle;Max_cycle;Signal;HPM_P1;HPM_P2
2024/01/19 00:00:18;;;;;;;;;61.25;48.25;;;;;-0.21;100.00;101633.94;5078930;27;45179;-70
2024/01/19 00:02:43;;;;;;;;;60.00;46.00;;;;;-0.30;100.00;101623.47;5094742;27;47843;-70
2024/01/19 00:05:09;;;;;;;;;57.50;46.50;;;;;-0.16;100.00;101662.56;5078639;27;45425;-70
2024/01/19 00:07:34;;;;;;;;;53.00;43.25;;;;;-0.21;100.00;101653.84;5081447;27;45336;-70
2024/01/19 00:10:00;;;;;;;;;58.50;46.75;;;;;-0.27;100.00;101653.78;5082392;27;45411;-70
2024/01/19 00:12:25;;;;;;;;;57.00;42.50;;;;;-0.29;100.00;101651.16;5081869;27;45333;-70
2024/01/19 00:14:51;;;;;;;;;53.25;45.50;;;;;-0.25;100.00;101659.88;5081901;27;45295;-70
2024/01/19 00:17:16;;;;;;;;;67.75;49.25;;;;;-0.33;100.00;101661.53;5080229;27;45402;-70
2024/01/19 00:19:41;;;;;;;;;46.00;41.50;;;;;-0.38;100.00;101647.59;5080527;27;46859;-70
2024/01/19 00:22:07;;;;;;;;;57.75;47.25;;;;;-0.36;100.00;101658.91;5080845;27;46340;-70
2024/01/19 00:24:32;;;;;;;;;56.25;45.00;;;;;-0.57;100.00;101634.41;5081666;27;45432;-70
2024/01/19 00:26:57;;;;;;;;;60.75;48.50;;;;;-0.40;100.00;101667.50;5097868;27;45517;-70
2024/01/19 00:29:23;;;;;;;;;51.75;44.00;;;;;-0.39;100.00;101675.31;5079670;28;45385;-70
2024/01/19 00:31:49;;;;;;;;;61.50;44.50;;;;;-0.33;100.00;101684.91;5078205;27;45443;-70
2024/01/19 00:34:15;;;;;;;;;56.75;48.00;;;;;-0.36;100.00;101688.34;5097645;27;45507;-70
2024/01/19 00:36:41;;;;;;;;;61.50;50.75;;;;;-0.40;100.00;101686.59;5081338;27;45471;-70
2024/01/19 00:39:07;;;;;;;;;36.50;35.00;;;;;-0.35;100.00;101695.28;5081989;27;45293;-70
2024/01/19 00:41:32;;;;;;;;;54.50;46.00;;;;;-0.55;100.00;101674.25;5097432;27;47145;-70
2024/01/19 00:43:57;;;;;;;;;54.75;45.25;;;;;-0.46;100.00;101685.63;5081394;27;45250;-70
2024/01/19 00:46:23;;;;;;;;;63.75;48.75;;;;;-0.37;100.00;101712.59;5081192;27;45371;-70
2024/01/19 00:48:49;;;;;;;;;48.00;44.50;;;;;-0.50;100.00;101682.13;5081652;27;45183;-70
2024/01/19 00:51:15;;;;;;;;;55.50;44.75;;;;;-0.40;100.00;101707.38;5080920;27;46254;-71
2024/01/19 00:53:40;;;;;;;;;67.00;50.25;;;;;-0.55;100.00;101692.44;5081263;27;45382;-70
2024/01/19 00:56:07;;;;;;;;;53.25;47.50;;;;;-0.41;100.00;101695.22;5079640;27;45494;-70
2024/01/19 00:58:32;;;;;;;;;50.75;40.50;;;;;-0.44;100.00;101695.19;5080611;27;45500;-70
2024/01/19 01:00:58;;;;;;;;;67.00;48.50;;;;;-0.59;100.00;101671.63;5081273;27;46347;-71
2024/01/19 01:03:24;;;;;;;;;54.00;43.50;;;;;-0.47;100.00;101696.88;5081144;27;45436;-71
2024/01/19 01:05:57;;;;;;;;;48.00;42.75;;;;;-0.42;100.00;101724.66;5081499;27;45304;-71
2024/01/19 01:08:27;;;;;;;;;55.50;45.00;;;;;-0.44;100.00;101720.28;5081158;27;45382;-70
2024/01/19 01:10:54;;;;;;;;;68.00;53.00;;;;;-0.54;100.00;101704.59;5076505;27;45237;-70
2024/01/19 01:13:20;;;;;;;;;57.50;47.50;;;;;-0.48;100.00;101718.50;5072754;27;45258;-70
2024/01/19 01:15:45;;;;;;;;;54.75;45.00;;;;;-0.49;100.00;101717.63;5081531;27;45329;-71
2024/01/19 01:18:11;;;;;;;;;60.25;47.50;;;;;-0.54;100.00;101725.38;5079141;27;45424;-70
2024/01/19 01:20:37;;;;;;;;;57.75;46.75;;;;;-0.56;100.00;101727.06;5078235;27;45438;-70
2024/01/19 01:23:03;;;;;;;;;46.50;44.25;;;;;-0.58;100.00;101714.91;5073742;27;45321;-71
2024/01/19 01:25:29;;;;;;;;;57.00;45.25;;;;;-0.56;100.00;101724.47;5098384;27;45290;-70
2024/01/19 01:27:54;;;;;;;;;47.25;44.25;;;;;-0.55;100.00;101740.94;5080764;27;45444;-70
2024/01/19 01:30:19;;;;;;;;;53.25;47.50;;;;;-0.71;100.00;101718.22;5081062;27;45329;-71
2024/01/19 01:32:45;;;;;;;;;56.75;47.75;;;;;-0.82;100.00;101718.06;5096919;27;45601;-71
2024/01/19 01:35:10;;;;;;;;;51.50;47.00;;;;;-0.74;100.00;101726.84;5080638;27;45511;-71
2024/01/19 01:37:36;;;;;;;;;59.50;45.75;;;;;-0.64;100.00;101751.22;5080730;27;45235;-70
2024/01/19 01:40:02;;;;;;;;;63.75;51.50;;;;;-0.69;100.00;101742.50;5096855;27;47061;-70
2024/01/19 01:42:27;;;;;;;;;59.25;45.25;;;;;-0.60;100.00;101771.19;5075022;28;45321;-70
2024/01/19 01:44:53;;;;;;;;;58.25;48.75;;;;;-0.69;100.00;101764.13;5096304;27;45415;-70
2024/01/19 01:47:18;;;;;;;;;55.50;44.25;;;;;-0.84;100.00;101730.16;5096334;27;45540;-70
2024/01/19 01:49:44;;;;;;;;;59.50;47.75;;;;;-0.68;100.00;101758.09;5080441;27;45431;-70
2024/01/19 01:52:10;;;;;;;;;52.25;44.75;;;;;-0.71;100.00;101757.16;5080041;27;45335;-69
2024/01/19 01:54:35;;;;;;;;;62.50;44.75;;;;;-0.75;100.00;101751.06;5080442;27;45467;-69
2024/01/19 01:57:02;;;;;;;;;55.00;44.25;;;;;-0.69;100.00;101774.50;5080995;27;45242;-69
2024/01/19 01:59:28;;;;;;;;;57.00;48.50;;;;;-0.77;100.00;101749.28;5080001;27;45534;-69
2024/01/19 02:01:54;;;;;;;;;52.00;44.25;;;;;-0.97;100.00;101717.84;5080674;28;46662;-69
2024/01/19 02:04:20;;;;;;;;;66.75;47.25;;;;;-0.71;100.00;101767.56;5080029;27;45318;-69
2024/01/19 02:06:45;;;;;;;;;63.00;50.50;;;;;-0.78;100.00;101758.81;5080333;27;45333;-69
2024/01/19 02:09:10;;;;;;;;;57.00;48.00;;;;;-0.76;100.00;101785.69;5078829;27;46150;-70
2024/01/19 02:11:37;;;;;;;;;51.75;45.25;;;;;-0.71;100.00;101775.34;5072489;28;45273;-69
2024/01/19 02:14:05;;;;;;;;;61.25;46.25;;;;;-0.98;100.00;101725.63;5076298;28;45429;-69
2024/01/19 02:16:31;;;;;;;;;63.25;48.00;;;;;-0.76;100.00;101764.03;5080617;27;45427;-69
2024/01/19 02:18:57;;;;;;;;;60.75;46.00;;;;;-0.96;100.00;101742.97;5080187;27;45440;-69
2024/01/19 02:21:22;;;;;;;;;55.25;42.25;;;;;-0.91;100.00;101751.69;5096548;27;45895;-69
2024/01/19 02:24:01;;;;;;;;;49.50;42.75;;;;;-0.74;100.00;101772.72;5080115;27;45508;-69
2024/01/19 02:26:28;;;;;;;;;55.25;45.00;;;;;-0.90;100.00;101743.06;5075195;28;45291;-69
2024/01/19 02:28:53;;;;;;;;;43.00;41.50;;;;;-0.72;100.00;101776.22;5094576;27;46422;-69
2024/01/19 02:31:18;;;;;;;;;56.75;44.50;;;;;-0.74;100.00;101776.19;5079192;27;45432;-69
2024/01/19 02:33:44;;;;;;;;;50.25;43.00;;;;;-0.71;100.00;101790.94;5079368;27;45568;-70
2024/01/19 02:36:09;;;;;;;;;51.75;45.75;;;;;-0.64;100.00;101795.38;5080117;27;45224;-69
2024/01/19 02:38:34;;;;;;;;;44.75;40.75;;;;;-0.75;100.00;101784.81;5078390;27;45249;-70
2024/01/19 02:41:00;;;;;;;;;58.75;46.00;;;;;-0.64;100.00;101805.75;5094506;27;45743;-70
2024/01/19 02:43:25;;;;;;;;;43.75;37.25;;;;;-0.68;100.00;101799.63;5079171;27;45441;-70
2024/01/19 02:45:50;;;;;;;;;59.50;45.75;;;;;-0.64;100.00;101809.22;5079702;27;45389;-70
2024/01/19 02:48:15;;;;;;;;;48.00;38.75;;;;;-0.72;100.00;101800.44;5076158;27;46041;-70
2024/01/19 02:50:41;;;;;;;;;45.00;43.75;;;;;-0.67;100.00;101805.72;5079162;27;45485;-70
2024/01/19 02:53:06;;;;;;;;;50.25;41.50;;;;;-0.68;100.00;101804.84;5079495;27;45393;-70
2024/01/19 02:55:32;;;;;;;;;44.00;41.50;;;;;-0.71;100.00;101798.72;5079660;27;45440;-70
2024/01/19 02:57:57;;;;;;;;;49.75;41.00;;;;;-0.72;100.00;101810.81;5078870;27;46116;-70
2024/01/19 03:00:23;;;;;;;;;31.25;31.25;;;;;-0.66;100.00;101813.53;5078547;27;45393;-69
2024/01/19 03:02:48;;;;;;;;;50.25;41.50;;;;;-0.66;100.00;101804.88;5079431;27;45456;-69
2024/01/19 03:05:13;;;;;;;;;24.50;24.50;;;;;-0.76;100.00;101777.91;5094677;27;46781;-69
2024/01/19 03:07:38;;;;;;;;;49.00;40.75;;;;;-0.76;100.00;101790.88;5095434;27;47129;-69
2024/01/19 03:10:04;;;;;;;;;45.25;40.50;;;;;-0.69;100.00;101797.88;5076222;27;45393;-69
2024/01/19 03:12:30;;;;;;;;;46.00;42.75;;;;;-0.72;100.00;101804.78;5079274;27;45336;-69
2024/01/19 03:14:55;;;;;;;;;53.50;42.50;;;;;-0.77;100.00;101809.91;5078674;27;45433;-69
2024/01/19 03:17:20;;;;;;;;;54.50;43.00;;;;;-0.84;100.00;101796.78;5079387;27;45313;-69
2024/01/19 03:19:46;;;;;;;;;45.75;43.50;;;;;-0.82;100.00;101801.16;5079328;27;45386;-70
2024/01/19 03:22:11;;;;;;;;;50.00;39.75;;;;;-0.76;100.00;101816.84;5077941;27;45629;-70
2024/01/19 03:24:36;;;;;;;;;53.50;41.00;;;;;-0.99;100.00;101781.88;5095132;27;45357;-70
2024/01/19 03:27:02;;;;;;;;;47.75;38.75;;;;;-0.76;100.00;101816.84;5094858;27;46891;-70
2024/01/19 03:29:27;;;;;;;;;43.25;40.25;;;;;-0.83;100.00;101807.22;5077771;27;45431;-70
2024/01/19 03:31:53;;;;;;;;;59.00;42.00;;;;;-0.81;100.00;101813.28;5094298;27;45263;-70
2024/01/19 03:34:19;;;;;;;;;43.25;32.50;;;;;-0.79;100.00;101808.13;5079068;27;45487;-70
2024/01/19 03:36:44;;;;;;;;;46.50;44.00;;;;;-1.03;100.00;101790.47;5095294;27;48022;-70
2024/01/19 03:39:10;;;;;;;;;58.00;42.50;;;;;-1.01;100.00;101801.72;5079203;27;45257;-70
2024/01/19 03:41:35;;;;;;;;;51.50;45.25;;;;;-0.89;100.00;101809.72;5078419;27;45488;-70
2024/01/19 03:44:00;;;;;;;;;44.25;40.50;;;;;-0.89;100.00;101827.03;5097830;27;45400;-70
2024/01/19 03:46:26;;;;;;;;;50.00;40.00;;;;;-0.90;100.00;101826.16;5082775;28;45489;-70
2024/01/19 03:48:51;;;;;;;;;57.25;39.25;;;;;-0.94;100.00;101829.53;5098662;27;45284;-70
2024/01/19 03:51:16;;;;;;;;;40.50;36.75;;;;;-1.39;100.00;101751.81;5073534;27;45249;-70
2024/01/19 03:53:43;;;;;;;;;46.75;39.75;;;;;-1.03;100.00;101823.31;5082295;27;45258;-70
2024/01/19 03:56:09;;;;;;;;;46.50;42.00;;;;;-0.91;100.00;101846.88;5100776;27;47490;-70
2024/01/19 03:58:34;;;;;;;;;49.50;44.00;;;;;-0.96;100.00;101848.53;5081313;28;45425;-70
2024/01/19 04:01:00;;;;;;;;;46.50;40.75;;;;;-0.99;100.00;101840.69;5081834;27;45328;-70
2024/01/19 04:03:25;;;;;;;;;46.50;39.00;;;;;-0.92;100.00;101852.94;5102044;27;45443;-70
2024/01/19 04:05:51;;;;;;;;;48.00;45.25;;;;;-0.96;100.00;101844.22;5081850;27;45539;-70
2024/01/19 04:08:16;;;;;;;;;54.50;44.75;;;;;-1.23;100.00;101790.13;5082283;27;45363;-70
2024/01/19 04:10:42;;;;;;;;;45.75;42.50;;;;;-1.15;100.00;101814.50;5081950;27;45280;-70
2024/01/19 04:13:07;;;;;;;;;47.75;42.25;;;;;-0.96;100.00;101859.81;5097664;27;45627;-70
2024/01/19 04:15:32;;;;;;;;;43.25;40.25;;;;;-1.06;100.00;101845.81;5081990;27;46626;-70
2024/01/19 04:17:58;;;;;;;;;43.00;41.25;;;;;-1.17;100.00;101846.44;5080043;27;45417;-70
2024/01/19 04:20:23;;;;;;;;;49.50;45.75;;;;;-0.98;100.00;101868.41;5095963;27;45624;-70
2024/01/19 04:22:49;;;;;;;;;51.25;41.50;;;;;-1.07;100.00;101859.63;5081633;27;45593;-70
2024/01/19 04:25:14;;;;;;;;;55.25;45.50;;;;;-1.00;100.00;101865.78;5097958;27;47170;-70
2024/01/19 04:27:40;;;;;;;;;40.25;36.75;;;;;-1.05;100.00;101857.06;5081624;27;45272;-70
2024/01/19 04:30:06;;;;;;;;;48.50;41.75;;;;;-1.09;100.00;101853.53;5082244;27;45379;-70
2024/01/19 04:32:31;;;;;;;;;41.75;36.25;;;;;-1.08;100.00;101867.41;5081461;27;45262;-70
2024/01/19 04:34:56;;;;;;;;;40.75;39.50;;;;;-1.08;100.00;101868.25;5097748;27;45480;-70
2024/01/19 04:37:22;;;;;;;;;49.25;38.25;;;;;-1.08;100.00;101862.19;5080051;27;45338;-70
2024/01/19 04:39:47;;;;;;;;;38.75;35.25;;;;;-1.08;100.00;101860.44;5075820;28;45392;-71
2024/01/19 04:42:12;;;;;;;;;39.75;36.00;;;;;-1.11;100.00;101867.31;5078720;27;45253;-70
2024/01/19 04:44:38;;;;;;;;;49.50;39.25;;;;;-1.09;100.00;101868.22;5081137;27;45386;-70
2024/01/19 04:47:04;;;;;;;;;46.50;40.00;;;;;-1.21;100.00;101850.72;5081346;27;45417;-70
2024/01/19 04:49:29;;;;;;;;;48.75;42.25;;;;;-1.44;100.00;101827.81;5081904;27;45320;-70
2024/01/19 04:51:54;;;;;;;;;50.25;42.00;;;;;-1.18;100.00;101874.13;5097695;27;45482;-70
2024/01/19 04:54:20;;;;;;;;;55.00;41.25;;;;;-1.22;100.00;101882.72;5079453;27;45393;-71
2024/01/19 04:56:45;;;;;;;;;38.75;35.50;;;;;-1.23;100.00;101872.31;5090101;27;45950;-70
2024/01/19 04:59:11;;;;;;;;;49.50;42.75;;;;;-1.25;100.00;101874.88;5077238;27;45368;-70
2024/01/19 05:01:36;;;;;;;;;46.50;40.75;;;;;-1.16;100.00;101901.00;5081444;27;45363;-70
2024/01/19 05:04:01;;;;;;;;;48.50;41.25;;;;;-1.25;100.00;101886.97;5097283;27;47673;-70
2024/01/19 05:06:27;;;;;;;;;39.00;37.25;;;;;-1.15;100.00;101914.84;5081376;27;45288;-70
2024/01/19 05:08:52;;;;;;;;;51.00;44.75;;;;;-1.43;100.00;101864.16;5097363;27;45354;-70
2024/01/19 05:11:17;;;;;;;;;48.25;43.25;;;;;-1.21;100.00;101917.34;5075810;27;45518;-70
2024/01/19 05:13:43;;;;;;;;;55.00;45.50;;;;;-1.18;100.00;101927.78;5080176;27;45364;-70
2024/01/19 05:16:09;;;;;;;;;45.00;38.25;;;;;-1.19;100.00;101919.09;5080731;27;45224;-70
2024/01/19 05:18:34;;;;;;;;;50.75;43.50;;;;;-1.20;100.00;101943.28;5081363;27;45569;-71
2024/01/19 05:21:01;;;;;;;;;40.50;35.75;;;;;-1.22;100.00;101929.44;5081551;27;46209;-70
2024/01/19 05:23:26;;;;;;;;;50.75;43.00;;;;;-1.23;100.00;101938.06;5079917;27;45377;-70
2024/01/19 05:25:51;;;;;;;;;47.50;42.25;;;;;-1.30;100.00;101932.72;5081467;27;45261;-70
2024/01/19 05:28:17;;;;;;;;;45.75;41.25;;;;;-1.24;100.00;101958.78;5080443;27;45293;-70
2024/01/19 05:30:42;;;;;;;;;41.75;35.25;;;;;-1.37;100.00;101946.41;5080884;27;45338;-70
2024/01/19 05:33:08;;;;;;;;;45.50;39.50;;;;;-1.25;100.00;101967.41;5080665;27;45525;-70
2024/01/19 05:35:33;;;;;;;;;52.25;43.00;;;;;-1.31;100.00;101954.34;5081213;27;45305;-70
2024/01/19 05:37:59;;;;;;;;;51.25;42.50;;;;;-1.37;100.00;101947.28;5081030;27;45411;-70
2024/01/19 05:40:24;;;;;;;;;50.00;41.75;;;;;-1.30;100.00;101958.66;5080719;27;45497;-70
2024/01/19 05:42:50;;;;;;;;;43.00;39.50;;;;;-1.30;100.00;101966.44;5080142;27;46232;-70
2024/01/19 05:45:15;;;;;;;;;57.50;45.50;;;;;-1.31;100.00;101962.13;5079733;27;45404;-72
2024/01/19 05:47:41;;;;;;;;;56.75;46.25;;;;;-1.61;100.00;101919.16;5080521;27;45289;-70
2024/01/19 05:50:06;;;;;;;;;53.50;42.00;;;;;-1.34;100.00;101975.03;5072932;27;45449;-70
2024/01/19 05:52:32;;;;;;;;;45.25;39.25;;;;;-1.43;100.00;101959.25;5096360;27;46917;-70
2024/01/19 05:54:57;;;;;;;;;54.50;42.75;;;;;-1.35;100.00;101976.75;5076253;27;45374;-70
2024/01/19 05:57:22;;;;;;;;;49.00;43.50;;;;;-1.44;100.00;101970.50;5077018;27;45268;-70
2024/01/19 05:59:48;;;;;;;;;59.50;46.00;;;;;-1.36;100.00;101976.69;5079961;27;45293;-70
2024/01/19 06:02:13;;;;;;;;;57.25;47.75;;;;;-1.40;100.00;101967.97;5079791;27;48885;-70
2024/01/19 06:04:40;;;;;;;;;46.00;42.00;;;;;-1.51;100.00;101947.88;5095443;27;45385;-70
2024/01/19 06:07:06;;;;;;;;;51.75;43.25;;;;;-1.38;100.00;101979.28;5080681;27;45316;-70
2024/01/19 06:09:31;;;;;;;;;42.25;42.00;;;;;-1.89;100.00;101896.09;5080429;27;45505;-70
2024/01/19 06:11:57;;;;;;;;;56.25;43.25;;;;;-1.44;100.00;101996.44;5096198;27;48156;-70
2024/01/19 06:14:23;;;;;;;;;54.50;45.00;;;;;-1.53;100.00;101983.25;5076310;27;45471;-70
2024/01/19 06:16:49;;;;;;;;;64.25;50.00;;;;;-1.51;100.00;101990.25;5076273;27;45319;-70
2024/01/19 06:19:14;;;;;;;;;62.75;47.25;;;;;-1.55;100.00;101983.25;5073261;27;45864;-70
2024/01/19 06:21:45;;;;;;;;;58.50;43.00;;;;;-1.47;100.00;101999.81;5075699;27;46088;-70
2024/01/19 06:24:14;;;;;;;;;55.00;44.00;;;;;-1.55;100.00;101982.38;5079592;27;45286;-70
2024/01/19 06:26:43;;;;;;;;;53.75;46.50;;;;;-1.70;100.00;101968.22;5080734;27;45381;-71
2024/01/19 06:29:09;;;;;;;;;57.25;46.25;;;;;-1.47;100.00;102007.59;5079409;27;45338;-70
2024/01/19 06:31:34;;;;;;;;;53.75;45.00;;;;;-1.74;100.00;101979.41;5077295;28;45338;-70
2024/01/19 06:33:59;;;;;;;;;59.50;48.00;;;;;-1.50;100.00;102022.22;5079575;27;45276;-70
2024/01/19 06:36:27;;;;;;;;;56.00;44.25;;;;;-1.45;100.00;102028.41;5078809;27;45242;-71
2024/01/19 06:38:54;;;;;;;;;49.00;46.25;;;;;-1.51;100.00;102030.88;5080118;27;45313;-70
2024/01/19 06:41:21;;;;;;;;;61.00;46.25;;;;;-1.69;100.00;101997.63;5080217;27;46519;-70
2024/01/19 06:43:46;;;;;;;;;64.75;49.25;;;;;-1.57;100.00;102016.91;5076860;27;45475;-70
2024/01/19 06:46:12;;;;;;;;;57.50;45.25;;;;;-1.50;100.00;102045.56;5072057;27;45553;-70
2024/01/19 06:48:37;;;;;;;;;47.00;42.25;;;;;-1.48;100.00;102047.38;5071430;27;45394;-71
2024/01/19 06:51:03;;;;;;;;;55.00;43.00;;;;;-1.53;100.00;102049.00;5075904;27;46655;-71
2024/01/19 06:53:28;;;;;;;;;55.25;45.00;;;;;-1.64;100.00;102027.16;5075635;27;45431;-71
2024/01/19 06:55:53;;;;;;;;;51.00;42.25;;;;;-1.50;100.00;102048.16;5073540;27;45459;-71
2024/01/19 06:58:19;;;;;;;;;55.00;44.75;;;;;-1.62;100.00;102034.09;5074498;27;45320;-71
2024/01/19 07:00:44;;;;;;;;;62.00;46.75;;;;;-1.81;100.00;101999.97;5077163;27;45350;-71
2024/01/19 07:03:10;;;;;;;;;57.00;43.50;;;;;-1.50;100.00;102058.53;5074015;27;45255;-71
2024/01/19 07:05:35;;;;;;;;;63.25;48.50;;;;;-1.73;100.00;102021.72;5082551;22;45310;-71
2024/01/19 07:08:00;;;;;;;;;52.00;46.00;;;;;-1.81;100.00;102011.22;5068178;28;45244;-71
2024/01/19 07:10:26;;;;;;;;;63.75;51.25;;;;;-1.52;100.00;102065.44;5068104;28;45299;-71
2024/01/19 07:12:51;;;;;;;;;53.75;46.75;;;;;-1.85;100.00;102030.13;5068267;28;45390;-71
2024/01/19 07:15:16;;;;;;;;;54.75;47.00;;;;;-1.67;100.00;102056.47;5070804;28;45420;-71
2024/01/19 07:17:42;;;;;;;;;51.50;46.75;;;;;-1.83;100.00;102028.44;5071578;28;45197;-71
2024/01/19 07:20:08;;;;;;;;;51.00;45.50;;;;;-1.66;100.00;102055.63;5071971;27;45705;-71
2024/01/19 07:22:33;;;;;;;;;61.00;47.75;;;;;-1.64;100.00;102077.28;5065774;28;45371;-71
2024/01/19 07:24:58;;;;;;;;;66.00;47.50;;;;;-1.63;100.00;102062.59;5070862;27;45228;-71
2024/01/19 07:27:24;;;;;;;;;64.75;49.75;;;;;-1.64;100.00;102063.47;5087751;27;45800;-70
2024/01/19 07:29:50;;;;;;;;;51.25;44.50;;;;;-1.58;100.00;102077.44;5074063;28;47875;-71
2024/01/19 07:32:15;;;;;;;;;58.50;47.75;;;;;-1.58;100.00;102082.63;5074984;27;45498;-70
2024/01/19 07:34:40;;;;;;;;;54.75;46.00;;;;;-1.68;100.00;102074.59;5077028;27;45267;-70
2024/01/19 07:37:06;;;;;;;;;60.75;46.50;;;;;-1.66;100.00;102078.97;5078187;27;45300;-70
2024/01/19 07:39:31;;;;;;;;;60.75;45.50;;;;;-1.60;100.00;102102.44;5078651;28;45342;-70
2024/01/19 07:41:56;;;;;;;;;57.50;43.50;;;;;-1.73;100.00;102092.63;5079613;27;45317;-71
2024/01/19 07:44:22;;;;;;;;;56.50;47.00;;;;;-1.69;100.00;102080.59;5078519;27;45616;-71
2024/01/19 07:46:48;;;;;;;;;60.00;46.75;;;;;-1.85;100.00;102068.13;5076189;27;45461;-70
2024/01/19 07:49:20;;;;;;;;;49.50;45.00;;;;;-1.64;100.00;102100.59;5078475;27;46826;-70
2024/01/19 07:51:45;;;;;;;;;49.50;44.50;;;;;-1.64;100.00;102116.16;5070015;27;45322;-70
2024/01/19 07:54:11;;;;;;;;;66.33;48.00;;;;;-1.71;100.00;102100.47;5078453;28;45411;-71
2024/01/19 07:56:36;;;;;;;;;58.00;46.00;;;;;-1.67;100.00;102108.31;5079280;27;45266;-71
2024/01/19 07:59:01;;;;;;;;;61.75;51.00;;;;;-1.70;100.00;102108.25;5072329;27;46306;-71
2024/01/19 08:01:27;;;;;;;;;56.00;46.50;;;;;-1.76;100.00;102102.03;5072270;28;45516;-70
2024/01/19 08:03:52;;;;;;;;;64.75;48.75;;;;;-1.70;100.00;102116.03;5078315;27;45321;-71
2024/01/19 08:06:18;;;;;;;;;53.50;48.25;;;;;-1.66;100.00;102138.63;5077448;27;45405;-71
2024/01/19 08:08:43;;;;;;;;;58.00;51.25;;;;;-1.76;100.00;102112.41;5063786;28;46405;-70
2024/01/19 08:11:08;;;;;;;;;66.00;50.50;;;;;-1.66;100.00;102135.13;5076714;27;45448;-71
2024/01/19 08:13:34;;;;;;;;;58.75;47.00;;;;;-1.63;100.00;102130.03;5067445;27;45390;-71
2024/01/19 08:15:59;;;;;;;;;61.25;49.75;;;;;-1.62;100.00;102136.97;5074691;27;45379;-71
2024/01/19 08:18:25;;;;;;;;;72.50;54.50;;;;;-1.60;100.00;102141.34;5072309;28;45410;-71
2024/01/19 08:20:50;;;;;;;;;65.75;54.50;;;;;-1.63;100.00;102135.22;5070657;27;45379;-71
2024/01/19 08:23:15;;;;;;;;;63.25;53.50;;;;;-1.50;100.00;102159.72;5071371;27;45580;-71
2024/01/19 08:25:41;;;;;;;;;76.00;58.75;;;;;-1.52;100.00;102164.00;5076500;27;45176;-71
2024/01/19 08:28:06;;;;;;;;;69.75;57.25;;;;;-1.59;100.00;102155.19;5081664;27;48218;-71
2024/01/19 08:30:32;;;;;;;;;77.00;58.00;;;;;-1.49;100.00;102177.91;5081929;27;45361;-71
2024/01/19 08:33:01;;;;;;;;;68.00;54.00;;;;;-1.54;100.00;102179.53;5080992;28;45269;-71
2024/01/19 08:35:26;;;;;;;;;70.75;56.75;;;;;-1.43;100.00;102193.63;5076202;27;45429;-71
2024/01/19 08:37:52;;;;;;;;;80.50;57.50;;;;;-1.51;100.00;102170.94;5077676;27;45903;-71
2024/01/19 08:40:18;;;;;;;;;73.00;59.00;;;;;-1.49;100.00;102185.72;5066208;28;45469;-70
2024/01/19 08:42:43;;;;;;;;;73.25;57.50;;;;;-1.46;100.00;102169.31;5072819;28;45468;-70
2024/01/19 08:45:08;;;;;;;;;73.00;59.00;;;;;-1.34;100.00;102196.44;5077613;27;45424;-70
2024/01/19 08:47:34;;;;;;;;;82.00;61.50;;;;;-1.38;100.00;102186.84;5078142;28;46221;-70
2024/01/19 08:50:02;;;;;;;;;77.25;61.00;;;;;-1.31;100.00;102198.25;5082017;27;45441;-70
2024/01/19 08:52:29;;;;;;;;;72.25;57.75;;;;;-1.28;100.00;102200.91;5071219;27;45275;-71
2024/01/19 08:54:54;;;;;;;;;74.75;59.50;;;;;-1.25;100.00;102206.16;5073094;28;45447;-70
2024/01/19 08:57:20;;;;;;;;;67.75;56.00;;;;;-1.21;100.00;102206.25;5068450;27;46113;-71
2024/01/19 08:59:45;;;;;;;;;78.50;60.25;;;;;-1.12;100.00;102210.81;5074760;27;45388;-71
2024/01/19 09:02:11;;;;;;;;;72.50;56.50;;;;;-1.09;100.00;102206.56;5081295;27;45334;-71
2024/01/19 09:04:36;;;;;;;;;74.75;55.50;;;;;-1.25;100.00;102175.03;5081747;27;45317;-71
2024/01/19 09:07:01;;;;;;;;;74.00;59.50;;;;;-1.08;100.00;102208.28;5081751;27;45476;-70
2024/01/19 09:09:27;;;;;;;;;71.00;58.50;;;;;-1.06;100.00;102204.03;5081522;27;45247;-71
2024/01/19 09:11:53;;;;;;;;;80.00;63.00;;;;;-0.89;100.00;102221.69;5079774;27;45354;-70
2024/01/19 09:14:20;;;;;;;;;82.50;61.75;;;;;-0.95;100.00;102213.78;5069840;28;45507;-71
2024/01/19 09:16:45;;;;;;;;;77.00;63.25;;;;;-0.98;100.00;102203.34;5081365;27;45270;-70
2024/01/19 09:19:12;;;;;;;;;82.25;61.75;;;;;-0.77;100.00;102238.41;5081556;27;45269;-71
2024/01/19 09:21:44;;;;;;;;;79.50;60.25;;;;;-0.80;100.00;102242.66;5081591;27;45385;-71
2024/01/19 09:24:11;;;;;;;;;74.50;60.00;;;;;-0.68;100.00;102242.94;5080783;28;45584;-71
2024/01/19 09:26:37;;;;;;;;;67.75;52.00;;;;;-0.95;100.00;102203.41;5070981;27;46327;-71
2024/01/19 09:29:02;;;;;;;;;72.00;56.25;;;;;-0.64;100.00;102237.84;5080842;27;45350;-71
2024/01/19 09:31:27;;;;;;;;;73.50;60.00;;;;;-0.66;100.00;102229.16;5072012;28;45420;-70
2024/01/19 09:33:53;;;;;;;;;76.25;54.75;;;;;-0.54;100.00;102239.78;5080420;27;45234;-71
2024/01/19 09:36:18;;;;;;;;;83.50;56.00;;;;;-0.44;100.00;102252.97;5080344;27;46160;-71
2024/01/19 09:38:44;;;;;;;;;79.50;61.00;;;;;-0.39;100.00;102260.00;5094773;27;45992;-71
2024/01/19 09:41:33;;;;;;;;;76.50;61.25;;;;;-0.35;100.00;102263.56;5078408;27;45289;-71
2024/01/19 09:44:00;;;;;;;;;83.75;67.25;;;;;-0.61;100.00;102235.31;5073624;28;45448;-70
2024/01/19 09:46:30;;;;;;;;;78.25;63.25;;;;;-0.28;100.00;102279.31;5075170;27;46164;-70
2024/01/19 09:49:36;;;;;;;;;78.50;62.25;;;;;-0.71;100.00;102189.19;5075020;27;45355;-70
2024/01/19 09:52:13;;;;;;;;;77.75;61.50;;;;;-0.17;100.00;102272.63;5080401;27;45375;-70
2024/01/19 09:54:40;;;;;;;;;72.75;59.75;;;;;-0.14;100.00;102283.06;5075171;28;45410;-70
2024/01/19 09:57:05;;;;;;;;;76.25;58.50;;;;;-0.10;100.00;102289.22;5080620;27;45290;-70
2024/01/19 09:59:32;;;;;;;;;77.50;61.25;;;;;-0.26;100.00;102246.41;5072439;28;45281;-70
2024/01/19 10:01:59;;;;;;;;;71.75;56.50;;;;;0.05;100.00;102278.22;5077851;28;45356;-70
2024/01/19 10:04:25;;;;;;;;;68.00;56.00;;;;;0.04;100.00;102282.53;5069077;27;45402;-70
2024/01/19 10:06:54;;;;;;;;;79.75;58.50;;;;;0.13;100.00;102295.72;5079761;28;46266;-70
2024/01/19 10:09:21;;;;;;;;;67.25;52.00;;;;;0.17;100.00;102299.25;5068923;27;45326;-70
2024/01/19 10:11:50;;;;;;;;;78.25;63.25;;;;;-0.01;100.00;102266.00;5072297;28;45495;-70
2024/01/19 10:14:16;;;;;;;;;71.75;57.25;;;;;0.26;100.00;102307.25;5068019;28;45504;-70
2024/01/19 10:16:42;;;;;;;;;74.50;58.50;;;;;0.15;100.00;102285.34;5080624;27;45333;-70
2024/01/19 10:19:09;;;;;;;;;72.75;57.00;;;;;0.31;100.00;102310.81;5066980;28;45381;-70
2024/01/19 10:21:35;;;;;;;;;73.25;54.00;;;;;0.34;100.00;102301.34;5097111;27;45361;-70
2024/01/19 10:24:15;;;;;;;;;68.25;54.00;;;;;0.34;100.00;102290.06;5075156;28;45520;-70
2024/01/19 10:27:01;;;;;;;;;69.25;55.00;;;;;0.39;100.00;102299.69;5078389;27;46311;-70
2024/01/19 10:29:26;;;;;;;;;77.25;59.00;;;;;0.46;100.00;102311.97;5061857;28;45239;-70
2024/01/19 10:31:55;;;;;;;;;79.25;59.00;;;;;0.02;100.00;102220.94;5077143;28;45311;-70
2024/01/19 10:34:23;;;;;;;;;74.00;58.00;;;;;0.53;100.00;102303.41;5071134;27;45307;-70
2024/01/19 10:36:50;;;;;;;;;67.75;55.75;;;;;0.50;100.00;102292.97;5078916;28;45431;-70
2024/01/19 10:39:21;;;;;;;;;83.00;59.75;;;;;0.65;100.00;102317.50;5080512;27;45395;-70
2024/01/19 10:41:51;;;;;;;;;79.25;61.75;;;;;0.65;100.00;102320.13;5070568;27;45338;-70
2024/01/19 10:44:25;;;;;;;;;72.25;58.25;;;;;0.48;100.00;102275.56;5068879;28;45765;-70
2024/01/19 10:46:50;;;;;;;;;72.25;59.75;;;;;0.72;100.00;102322.81;5080186;27;45424;-70
2024/01/19 10:49:16;;;;;;;;;73.75;57.75;;;;;0.76;100.00;102302.94;5070259;27;45381;-70
2024/01/19 10:51:45;;;;;;;;;69.75;56.25;;;;;0.79;100.00;102303.88;5075581;27;45408;-69
2024/01/19 10:54:17;;;;;;;;;77.75;58.50;;;;;0.67;100.00;102276.75;5066596;28;45428;-69
2024/01/19 10:56:45;;;;;;;;;76.25;59.00;;;;;0.85;100.00;102287.47;5073972;27;45348;-70